Time;durP1;ratioP1;P1;durP2;ratioP2;P2;SDS_P1;SDS_P2;PMS_P1;PMS_P2;Temp;Humidity;BMP_temperature;BMP_pressure;BME280_temperature;BME280_humidity;BME280_pressure;Samples;Min_cycle;Max_cycle;Signal;HPM_P1;HPM_P2
2023/05/26 00:01:18;;;;;;;34.15;9.82;;;11.90;56.40;;;;;;5093975;28;20465;-72
2023/05/26 00:03:44;;;;;;;41.00;9.05;;;11.90;56.50;;;;;;5093580;28;20374;-73
2023/05/26 00:06:14;;;;;;;33.00;9.63;;;11.90;56.90;;;;;;5093329;28;20386;-72
2023/05/26 00:08:39;;;;;;;37.25;9.23;;;11.80;56.50;;;;;;5092747;28;20524;-71
2023/05/26 00:11:05;;;;;;;40.33;10.63;;;11.80;57.20;;;;;;5092463;28;20855;-73
2023/05/26 00:13:31;;;;;;;46.28;10.00;;;11.70;57.80;;;;;;5091185;28;20390;-71
2023/05/26 00:15:57;;;;;;;37.53;9.70;;;11.70;57.80;;;;;;5092631;28;20796;-71
2023/05/26 00:18:26;;;;;;;39.00;10.40;;;11.70;58.20;;;;;;5091208;28;20374;-72
2023/05/26 00:20:55;;;;;;;33.75;9.45;;;11.70;58.40;;;;;;5092430;28;20394;-72
2023/05/26 00:23:22;;;;;;;44.60;9.40;;;11.60;58.50;;;;;;5092240;28;20442;-72
2023/05/26 00:25:49;;;;;;;42.00;9.60;;;11.60;59.00;;;;;;5092365;28;20381;-72
2023/05/26 00:28:15;;;;;;;46.30;9.85;;;11.60;59.00;;;;;;5092177;28;20385;-71
2023/05/26 00:30:40;;;;;;;41.67;10.23;;;11.60;59.20;;;;;;5092123;28;20730;-73
2023/05/26 00:33:06;;;;;;;33.83;9.03;;;11.50;59.20;;;;;;5092201;28;20884;-72
2023/05/26 00:35:31;;;;;;;40.10;9.52;;;11.50;59.40;;;;;;5091242;28;20455;-72
2023/05/26 00:37:57;;;;;;;43.85;9.55;;;11.40;59.80;;;;;;5092433;28;20382;-72
2023/05/26 00:40:22;;;;;;;35.80;9.55;;;11.40;61.10;;;;;;5092701;28;20421;-74
2023/05/26 00:42:48;;;;;;;32.13;8.73;;;11.40;60.80;;;;;;5090669;28;20402;-74
2023/05/26 00:45:14;;;;;;;32.13;9.20;;;11.40;60.60;;;;;;5092031;28;20386;-71
2023/05/26 00:47:40;;;;;;;35.80;9.60;;;11.40;59.90;;;;;;5091405;28;20386;-72
2023/05/26 00:50:07;;;;;;;37.97;9.25;;;11.30;61.50;;;;;;5091734;28;20378;-72
2023/05/26 00:52:34;;;;;;;44.20;10.10;;;11.20;61.60;;;;;;5091448;28;20386;-72
2023/05/26 00:55:01;;;;;;;29.45;9.57;;;11.20;62.40;;;;;;5091963;28;20382;-72
2023/05/26 00:57:28;;;;;;;36.90;9.10;;;11.10;63.90;;;;;;5091558;28;20866;-71
2023/05/26 00:59:57;;;;;;;36.13;9.43;;;11.10;63.90;;;;;;5090216;28;20390;-73
2023/05/26 01:02:25;;;;;;;35.72;9.40;;;11.00;64.90;;;;;;5091121;28;20458;-73
2023/05/26 01:04:52;;;;;;;38.83;8.95;;;11.00;64.70;;;;;;5091394;28;20852;-72
2023/05/26 01:07:19;;;;;;;35.20;9.27;;;11.00;64.60;;;;;;5090276;28;20386;-73
2023/05/26 01:09:45;;;;;;;41.40;9.23;;;11.10;63.70;;;;;;5090287;28;20382;-73
2023/05/26 01:12:15;;;;;;;36.00;9.10;;;11.10;63.30;;;;;;5090008;28;20763;-72
2023/05/26 01:15:00;;;;;;;32.83;8.75;;;11.10;62.90;;;;;;5091316;28;20427;-73
2023/05/26 01:17:31;;;;;;;36.28;9.32;;;11.00;63.60;;;;;;5091319;28;20381;-72
2023/05/26 01:20:09;;;;;;;36.55;9.02;;;11.00;63.10;;;;;;5091401;28;20737;-71
2023/05/26 01:22:50;;;;;;;35.78;8.52;;;11.00;63.00;;;;;;5090920;28;20393;-73
2023/05/26 01:25:48;;;;;;;38.00;8.18;;;10.90;62.60;;;;;;5091125;28;20397;-72
2023/05/26 01:28:21;;;;;;;35.67;8.77;;;10.90;63.20;;;;;;5091404;28;20738;-73
2023/05/26 01:30:48;;;;;;;35.33;8.95;;;10.90;62.60;;;;;;5090929;28;20382;-72
2023/05/26 01:33:14;;;;;;;35.50;8.60;;;10.80;63.70;;;;;;5090762;28;20410;-72
2023/05/26 01:35:40;;;;;;;40.20;8.98;;;10.80;64.00;;;;;;5091012;28;20430;-71
2023/05/26 01:38:07;;;;;;;39.10;8.88;;;10.80;64.00;;;;;;5091190;28;20378;-72
2023/05/26 01:40:33;;;;;;;36.78;8.20;;;10.80;63.70;;;;;;5091061;28;20401;-73
2023/05/26 01:43:05;;;;;;;34.25;8.68;;;10.80;63.80;;;;;;5090659;28;20398;-73
2023/05/26 01:45:40;;;;;;;40.67;8.25;;;10.70;64.20;;;;;;5091084;28;20379;-72
2023/05/26 01:48:08;;;;;;;39.83;8.88;;;10.70;65.00;;;;;;5091166;28;20378;-73
2023/05/26 01:50:39;;;;;;;37.47;8.45;;;10.60;65.50;;;;;;5091131;28;20738;-73
2023/05/26 01:53:07;;;;;;;35.55;8.80;;;10.70;64.60;;;;;;5091161;28;20386;-73
2023/05/26 01:55:36;;;;;;;34.65;8.02;;;10.60;65.10;;;;;;5090903;28;20421;-72
2023/05/26 01:58:02;;;;;;;31.40;8.50;;;10.60;64.80;;;;;;5090810;28;20729;-71
2023/05/26 02:00:28;;;;;;;36.80;8.90;;;10.60;65.30;;;;;;5089110;28;20474;-71
2023/05/26 02:02:53;;;;;;;29.37;7.83;;;10.50;66.70;;;;;;5090310;28;20398;-72
2023/05/26 02:05:19;;;;;;;32.10;7.47;;;10.40;66.60;;;;;;5090800;28;20386;-73
2023/05/26 02:07:45;;;;;;;44.00;8.40;;;10.40;66.60;;;;;;5090565;28;20386;-72
2023/05/26 02:10:11;;;;;;;39.45;8.40;;;10.40;66.60;;;;;;5090795;28;20735;-72
2023/05/26 02:12:36;;;;;;;27.13;7.88;;;10.40;67.40;;;;;;5090494;28;20386;-73
2023/05/26 02:15:02;;;;;;;41.20;9.07;;;10.30;68.00;;;;;;5090630;28;20808;-72
2023/05/26 02:17:28;;;;;;;37.55;7.60;;;10.30;68.40;;;;;;5090607;28;20382;-72
2023/05/26 02:19:54;;;;;;;37.67;8.70;;;10.20;69.30;;;;;;5090667;28;20420;-71
2023/05/26 02:22:20;;;;;;;34.13;8.40;;;10.10;69.40;;;;;;5090319;28;20967;-73
2023/05/26 02:24:45;;;;;;;40.87;9.27;;;10.20;69.10;;;;;;5090249;28;20426;-73
2023/05/26 02:27:11;;;;;;;36.97;8.77;;;10.20;69.00;;;;;;5090365;28;20410;-71
2023/05/26 02:29:36;;;;;;;36.20;8.50;;;10.10;69.40;;;;;;5090391;28;20401;-72
2023/05/26 02:32:02;;;;;;;37.60;8.00;;;10.10;70.30;;;;;;5090664;28;20385;-72
2023/05/26 02:34:28;;;;;;;40.63;8.40;;;10.10;70.40;;;;;;5096725;28;20527;-73
2023/05/26 02:36:55;;;;;;;32.83;8.17;;;10.00;71.80;;;;;;5106300;28;20420;-72
2023/05/26 02:39:21;;;;;;;40.42;8.82;;;10.00;72.10;;;;;;5103766;28;20386;-72
2023/05/26 02:41:47;;;;;;;32.17;7.70;;;9.90;72.30;;;;;;5091339;28;20794;-72
2023/05/26 02:44:13;;;;;;;31.95;8.10;;;10.00;71.40;;;;;;5089888;28;20422;-72
2023/05/26 02:46:39;;;;;;;46.05;8.13;;;10.00;70.90;;;;;;5090330;28;20747;-72
2023/05/26 02:49:05;;;;;;;36.17;8.23;;;10.00;71.30;;;;;;5090516;28;20473;-71
2023/05/26 02:51:30;;;;;;;39.47;9.40;;;9.90;71.70;;;;;;5090341;28;20816;-71
2023/05/26 02:53:56;;;;;;;27.75;7.50;;;9.90;72.30;;;;;;5090161;28;20371;-72
2023/05/26 02:56:22;;;;;;;36.13;8.00;;;9.80;73.10;;;;;;5090192;28;20422;-72
2023/05/26 02:58:47;;;;;;;40.72;9.07;;;9.80;74.00;;;;;;5090168;28;20401;-71
2023/05/26 03:01:13;;;;;;;34.57;8.20;;;9.80;73.30;;;;;;5090208;28;20382;-72
2023/05/26 03:03:38;;;;;;;37.80;8.57;;;9.80;73.30;;;;;;5088692;28;20398;-71
2023/05/26 03:06:04;;;;;;;41.23;8.60;;;9.80;73.30;;;;;;5090241;28;20385;-72
2023/05/26 03:08:30;;;;;;;38.13;8.10;;;9.70;74.10;;;;;;5090118;28;20383;-72
2023/05/26 03:10:56;;;;;;;35.30;8.93;;;9.80;74.70;;;;;;5089886;28;20378;-72
2023/05/26 03:13:21;;;;;;;30.85;8.15;;;9.70;75.80;;;;;;5093408;28;20416;-71
2023/05/26 03:15:48;;;;;;;29.63;7.77;;;9.70;76.10;;;;;;5093512;28;20381;-71
2023/05/26 03:18:14;;;;;;;38.80;8.52;;;9.70;76.10;;;;;;5093594;28;20402;-74
2023/05/26 03:20:40;;;;;;;38.45;8.32;;;9.70;76.20;;;;;;5093664;28;20462;-70
2023/05/26 03:23:06;;;;;;;43.30;8.37;;;9.60;76.50;;;;;;5091689;28;20928;-71
2023/05/26 03:25:31;;;;;;;42.50;9.10;;;9.60;76.90;;;;;;5124931;22;20436;-71
2023/05/26 03:27:57;;;;;;;46.23;8.70;;;9.60;77.10;;;;;;5114293;28;20451;-72
2023/05/26 03:30:22;;;;;;;36.57;7.57;;;9.60;77.20;;;;;;5129003;28;20383;-71
2023/05/26 03:32:48;;;;;;;38.33;8.30;;;9.50;77.90;;;;;;5134117;28;20398;-69
2023/05/26 03:35:14;;;;;;;33.67;8.30;;;9.50;78.20;;;;;;5135399;28;20381;-71
2023/05/26 03:37:39;;;;;;;39.80;9.35;;;9.50;79.00;;;;;;5132641;28;20360;-72
2023/05/26 03:40:06;;;;;;;38.05;8.65;;;9.40;79.20;;;;;;5131003;28;20380;-72
2023/05/26 03:42:31;;;;;;;33.03;8.75;;;9.40;79.30;;;;;;5129272;28;20395;-71
2023/05/26 03:44:57;;;;;;;36.45;9.05;;;9.40;79.50;;;;;;5132111;28;20381;-71
2023/05/26 03:47:22;;;;;;;38.25;9.52;;;9.40;80.30;;;;;;5132758;28;20384;-71
2023/05/26 03:49:48;;;;;;;40.67;8.68;;;9.40;80.40;;;;;;5126977;28;20380;-72
2023/05/26 03:52:14;;;;;;;41.55;8.82;;;9.40;80.20;;;;;;5114609;28;20386;-72
2023/05/26 03:54:39;;;;;;;43.28;9.68;;;9.40;80.40;;;;;;5113568;28;20445;-73
2023/05/26 03:57:05;;;;;;;39.53;8.32;;;9.40;80.80;;;;;;5113455;28;20424;-72
2023/05/26 03:59:31;;;;;;;44.95;9.10;;;9.40;80.60;;;;;;5114707;27;20407;-72
2023/05/26 04:01:57;;;;;;;36.70;8.27;;;9.40;81.10;;;;;;5114209;28;20449;-72
2023/05/26 04:04:23;;;;;;;31.05;8.38;;;9.50;80.60;;;;;;5114113;28;20387;-72
2023/05/26 04:06:49;;;;;;;37.30;8.10;;;9.50;80.10;;;;;;5112765;28;20451;-72
2023/05/26 04:09:14;;;;;;;40.53;8.97;;;9.60;79.10;;;;;;5117163;28;20376;-72
2023/05/26 04:11:40;;;;;;;47.10;9.50;;;9.60;78.70;;;;;;5113911;28;20380;-71
2023/05/26 04:14:06;;;;;;;43.93;9.70;;;9.60;78.10;;;;;;5116282;28;20542;-71
2023/05/26 04:16:32;;;;;;;46.47;10.25;;;9.70;78.30;;;;;;5119240;28;20479;-72
2023/05/26 04:18:58;;;;;;;37.77;9.40;;;9.70;77.20;;;;;;5115490;28;20467;-71
2023/05/26 04:21:24;;;;;;;46.17;10.00;;;9.90;76.20;;;;;;5113225;28;20464;-71
2023/05/26 04:23:52;;;;;;;45.80;9.82;;;9.90;75.40;;;;;;5113295;28;20372;-72
2023/05/26 04:26:18;;;;;;;49.90;11.07;;;10.00;74.60;;;;;;5113275;28;20411;-71
2023/05/26 04:28:44;;;;;;;41.35;9.77;;;10.10;73.50;;;;;;5113098;28;20398;-70
2023/05/26 04:31:10;;;;;;;47.92;12.90;;;10.20;71.60;;;;;;5111776;28;20590;-71
2023/05/26 04:33:39;;;;;;;44.83;12.32;;;10.20;72.40;;;;;;5113176;28;20372;-71
2023/05/26 04:36:08;;;;;;;52.78;14.23;;;10.40;69.60;;;;;;5113216;28;20857;-72
2023/05/26 04:38:35;;;;;;;51.38;13.68;;;10.40;70.10;;;;;;5111637;28;20380;-71
2023/05/26 04:41:04;;;;;;;55.45;14.10;;;10.40;67.90;;;;;;5111518;28;20480;-72
2023/05/26 04:43:30;;;;;;;54.22;15.70;;;10.40;69.10;;;;;;5113148;28;20396;-71
2023/05/26 04:45:57;;;;;;;57.00;15.90;;;10.40;69.70;;;;;;5112788;28;20387;-72
2023/05/26 04:48:22;;;;;;;61.55;16.30;;;10.60;68.60;;;;;;5112799;28;20379;-72
2023/05/26 04:50:48;;;;;;;48.30;15.20;;;10.70;67.90;;;;;;5112557;28;20372;-72
2023/05/26 04:53:14;;;;;;;55.47;15.90;;;10.80;65.60;;;;;;5112931;28;20380;-73
2023/05/26 04:55:40;;;;;;;53.13;15.40;;;10.80;65.00;;;;;;5112913;28;20388;-72
2023/05/26 04:58:06;;;;;;;46.20;13.90;;;10.90;63.70;;;;;;5113082;28;20380;-72
2023/05/26 05:00:34;;;;;;;58.03;15.65;;;10.90;64.10;;;;;;5111190;28;20928;-72
2023/05/26 05:03:00;;;;;;;57.22;14.00;;;10.80;63.60;;;;;;5112323;28;20512;-71
2023/05/26 05:05:25;;;;;;;52.72;14.48;;;10.70;64.50;;;;;;5112694;28;20392;-71
2023/05/26 05:07:51;;;;;;;55.53;15.07;;;10.80;65.40;;;;;;5112304;28;20427;-70
2023/05/26 05:10:17;;;;;;;53.75;13.48;;;10.80;64.80;;;;;;5112480;28;20385;-72
2023/05/26 05:12:43;;;;;;;54.43;13.70;;;11.00;63.70;;;;;;5112587;28;20380;-72
2023/05/26 05:15:09;;;;;;;52.78;13.40;;;11.10;62.80;;;;;;5112339;28;20762;-72
2023/05/26 05:17:35;;;;;;;48.17;12.50;;;11.20;60.20;;;;;;5112353;28;20412;-71
2023/05/26 05:20:00;;;;;;;64.53;14.10;;;11.20;59.70;;;;;;5112303;28;20871;-72
2023/05/26 05:22:26;;;;;;;49.80;13.90;;;11.30;60.00;;;;;;5112377;28;20532;-71
2023/05/26 05:24:51;;;;;;;49.30;14.03;;;11.30;58.90;;;;;;5112056;28;20481;-71
2023/05/26 05:27:17;;;;;;;55.50;14.50;;;11.30;60.80;;;;;;5111271;28;20420;-71
2023/05/26 05:29:43;;;;;;;50.60;13.88;;;11.40;58.40;;;;;;5112588;28;20384;-71
2023/05/26 05:32:08;;;;;;;54.72;14.52;;;11.50;58.10;;;;;;5112526;28;20891;-73
2023/05/26 05:34:34;;;;;;;52.20;14.80;;;11.60;58.30;;;;;;5112307;28;20422;-72
2023/05/26 05:37:00;;;;;;;50.30;14.52;;;11.80;56.50;;;;;;5112776;28;20383;-73
2023/05/26 05:39:26;;;;;;;53.63;14.43;;;12.00;54.90;;;;;;5111138;28;20445;-71
2023/05/26 05:41:51;;;;;;;57.63;16.43;;;12.10;52.30;;;;;;5112392;28;20486;-71
2023/05/26 05:44:17;;;;;;;49.90;14.60;;;12.00;53.60;;;;;;5112050;28;20408;-71
2023/05/26 05:46:42;;;;;;;48.93;14.43;;;12.00;53.70;;;;;;5111506;28;20380;-73
2023/05/26 05:49:08;;;;;;;49.40;15.03;;;12.00;54.20;;;;;;5112173;28;20372;-71
2023/05/26 05:51:33;;;;;;;57.70;16.10;;;12.10;51.90;;;;;;5111822;28;20373;-72
2023/05/26 05:53:59;;;;;;;50.42;14.82;;;12.10;52.00;;;;;;5111013;28;20890;-71
2023/05/26 05:56:26;;;;;;;56.67;15.32;;;12.10;51.00;;;;;;5112257;28;20369;-72
2023/05/26 05:58:51;;;;;;;49.72;15.10;;;12.20;51.30;;;;;;5111807;28;20410;-71
2023/05/26 06:01:17;;;;;;;60.63;17.75;;;12.20;50.30;;;;;;5112203;28;20802;-70
2023/05/26 06:03:42;;;;;;;52.75;17.27;;;12.30;51.60;;;;;;5113641;28;20396;-71
2023/05/26 06:06:09;;;;;;;60.38;19.40;;;12.50;51.30;;;;;;5108794;28;20405;-71
2023/05/26 06:08:34;;;;;;;61.55;18.88;;;12.60;49.40;;;;;;5108212;28;20380;-71
2023/05/26 06:11:01;;;;;;;61.80;19.57;;;12.80;47.30;;;;;;5110603;28;20441;-72
2023/05/26 06:13:26;;;;;;;58.25;20.30;;;12.90;46.10;;;;;;5110553;28;20387;-71
2023/05/26 06:15:52;;;;;;;55.65;19.45;;;13.00;46.40;;;;;;5097985;28;20396;-71
2023/05/26 06:18:18;;;;;;;50.50;19.75;;;13.20;43.90;;;;;;5109675;28;20487;-71
2023/05/26 06:20:43;;;;;;;61.28;19.35;;;13.20;43.40;;;;;;5108936;28;20749;-71
2023/05/26 06:23:09;;;;;;;62.10;18.85;;;13.30;46.00;;;;;;5110365;28;20412;-71
2023/05/26 06:25:34;;;;;;;49.70;17.73;;;13.30;42.60;;;;;;5109143;28;20400;-71
2023/05/26 06:28:00;;;;;;;58.50;18.27;;;13.40;41.60;;;;;;5114634;28;20379;-72
2023/05/26 06:30:26;;;;;;;53.33;16.20;;;13.60;42.80;;;;;;5117912;28;20403;-71
2023/05/26 06:32:51;;;;;;;58.70;17.40;;;13.70;41.20;;;;;;5100783;28;20396;-71
2023/05/26 06:35:18;;;;;;;46.63;16.67;;;13.90;39.60;;;;;;5089324;28;20428;-70
2023/05/26 06:37:43;;;;;;;43.80;15.65;;;13.90;40.20;;;;;;5089128;28;20415;-71
2023/05/26 06:40:09;;;;;;;54.80;18.00;;;13.80;38.40;;;;;;5096118;28;20392;-70
2023/05/26 06:42:35;;;;;;;45.70;16.58;;;13.80;39.80;;;;;;5115428;28;20415;-70
2023/05/26 06:45:01;;;;;;;49.22;17.08;;;14.00;38.00;;;;;;5123324;28;20396;-71
2023/05/26 06:47:26;;;;;;;53.70;18.67;;;14.20;38.40;;;;;;5117757;28;20399;-71
2023/05/26 06:49:52;;;;;;;56.90;19.53;;;14.20;37.20;;;;;;5113284;28;20388;-71
2023/05/26 06:52:18;;;;;;;50.40;19.00;;;14.30;37.20;;;;;;5113141;28;20791;-71
2023/05/26 06:54:44;;;;;;;44.97;16.40;;;14.40;35.00;;;;;;5113509;28;20380;-71
2023/05/26 06:57:10;;;;;;;45.83;16.48;;;14.50;35.60;;;;;;5113335;28;20395;-71
2023/05/26 06:59:35;;;;;;;46.38;16.60;;;14.50;34.60;;;;;;5113399;28;20419;-71
2023/05/26 07:02:01;;;;;;;44.40;15.20;;;14.50;36.50;;;;;;5113537;28;20404;-71
2023/05/26 07:04:27;;;;;;;47.22;14.60;;;14.60;33.90;;;;;;5113905;28;20389;-70
2023/05/26 07:06:53;;;;;;;48.07;15.77;;;14.80;32.60;;;;;;5114128;27;20392;-71
2023/05/26 07:09:19;;;;;;;46.22;15.70;;;14.60;32.90;;;;;;5112250;28;20400;-71
2023/05/26 07:11:45;;;;;;;50.40;16.40;;;14.80;33.40;;;;;;5121264;28;20433;-70
2023/05/26 07:14:10;;;;;;;46.97;15.80;;;14.90;32.50;;;;;;5130690;28;20400;-72
2023/05/26 07:16:36;;;;;;;42.07;15.50;;;14.90;32.60;;;;;;5114962;28;20822;-72
2023/05/26 07:19:02;;;;;;;45.70;15.00;;;14.90;32.80;;;;;;5113702;28;20540;-71
2023/05/26 07:21:28;;;;;;;42.72;13.75;;;14.70;33.20;;;;;;5112855;28;20384;-71
2023/05/26 07:23:54;;;;;;;50.75;14.70;;;14.10;34.80;;;;;;5112403;27;20868;-71
2023/05/26 07:26:20;;;;;;;45.03;14.10;;;13.30;39.10;;;;;;5113782;28;20534;-72
2023/05/26 07:28:46;;;;;;;48.47;13.85;;;13.10;41.20;;;;;;5113497;28;20384;-71
2023/05/26 07:31:12;;;;;;;55.53;16.60;;;12.90;43.00;;;;;;5114200;28;20384;-72
2023/05/26 07:33:37;;;;;;;50.20;15.77;;;12.70;45.30;;;;;;5111071;28;20686;-71
2023/05/26 07:36:03;;;;;;;43.30;16.00;;;12.70;46.20;;;;;;5109577;28;20397;-72
2023/05/26 07:38:29;;;;;;;49.67;15.17;;;12.70;46.00;;;;;;5101353;28;20432;-71
2023/05/26 07:40:54;;;;;;;53.93;17.23;;;12.80;45.70;;;;;;5096220;28;20653;-71
2023/05/26 07:43:20;;;;;;;54.45;15.48;;;12.90;45.40;;;;;;5101029;28;20443;-71
2023/05/26 07:45:46;;;;;;;46.03;16.33;;;13.00;46.00;;;;;;5113090;28;20496;-71
2023/05/26 07:48:14;;;;;;;37.42;14.95;;;13.20;44.60;;;;;;5094282;28;20385;-73
2023/05/26 07:50:40;;;;;;;45.78;15.25;;;13.40;42.90;;;;;;5109509;28;20718;-71
2023/05/26 07:53:05;;;;;;;43.22;16.35;;;13.50;41.00;;;;;;5114099;27;20411;-73
2023/05/26 07:55:31;;;;;;;46.97;16.17;;;13.60;41.00;;;;;;5113211;28;20388;-70
2023/05/26 07:57:57;;;;;;;54.17;17.80;;;13.60;40.80;;;;;;5114055;28;20409;-73
2023/05/26 08:00:22;;;;;;;47.70;17.83;;;13.70;40.10;;;;;;5114744;28;20392;-71
2023/05/26 08:02:48;;;;;;;57.90;18.00;;;13.80;41.00;;;;;;5098336;28;20440;-70
2023/05/26 08:05:13;;;;;;;55.92;17.83;;;13.90;39.20;;;;;;5111074;28;20395;-72
2023/05/26 08:07:39;;;;;;;63.75;20.33;;;13.90;37.60;;;;;;5113853;28;20385;-71
2023/05/26 08:10:05;;;;;;;58.25;20.13;;;13.70;39.50;;;;;;5107825;28;20417;-73
2023/05/26 08:12:31;;;;;;;56.70;18.25;;;13.70;40.10;;;;;;5093750;28;20474;-71
2023/05/26 08:14:56;;;;;;;54.37;17.37;;;13.60;39.50;;;;;;5094063;28;20409;-72
2023/05/26 08:17:22;;;;;;;57.30;17.60;;;13.60;40.10;;;;;;5093811;28;20492;-71
2023/05/26 08:19:49;;;;;;;43.87;16.30;;;13.70;39.80;;;;;;5096227;28;20397;-71
2023/05/26 08:22:14;;;;;;;49.30;17.95;;;13.80;39.50;;;;;;5103420;28;20410;-71
2023/05/26 08:24:40;;;;;;;49.30;17.80;;;14.00;39.50;;;;;;5091802;28;20422;-71
2023/05/26 08:27:06;;;;;;;48.38;15.73;;;14.10;37.70;;;;;;5108671;28;20864;-72
2023/05/26 08:29:31;;;;;;;48.75;16.05;;;14.20;37.20;;;;;;5112607;28;20373;-72
2023/05/26 08:31:57;;;;;;;47.55;14.25;;;14.10;38.10;;;;;;5114061;28;20445;-71
2023/05/26 08:34:23;;;;;;;44.23;13.40;;;14.30;36.40;;;;;;5110967;28;20388;-72
2023/05/26 08:36:48;;;;;;;55.07;15.27;;;14.30;35.10;;;;;;5108302;28;20885;-72
2023/05/26 08:39:14;;;;;;;46.83;14.77;;;14.00;37.30;;;;;;5107928;28;20387;-72
2023/05/26 08:41:57;;;;;;;40.93;14.30;;;13.90;37.50;;;;;;5113328;28;20380;-71
2023/05/26 08:44:23;;;;;;;41.42;12.80;;;14.00;39.20;;;;;;5113548;28;20765;-71
2023/05/26 08:46:55;;;;;;;46.93;13.60;;;14.00;37.50;;;;;;5112230;28;20430;-72
2023/05/26 08:49:22;;;;;;;40.50;12.73;;;13.90;37.40;;;;;;5112585;28;20404;-71
2023/05/26 08:52:09;;;;;;;42.92;13.45;;;13.90;37.60;;;;;;5112569;28;20380;-71
2023/05/26 08:54:34;;;;;;;43.72;13.60;;;14.20;37.50;;;;;;5099045;28;20404;-71
2023/05/26 08:57:03;;;;;;;48.57;14.20;;;14.50;37.80;;;;;;5107202;28;20453;-72
2023/05/26 08:59:29;;;;;;;48.15;13.07;;;14.80;34.20;;;;;;5114562;28;20376;-73
2023/05/26 09:01:56;;;;;;;38.60;12.50;;;14.80;33.20;;;;;;5112899;28;20427;-71
2023/05/26 09:04:22;;;;;;;39.83;11.75;;;14.90;33.00;;;;;;5093811;28;20855;-71
2023/05/26 09:06:49;;;;;;;48.55;12.40;;;14.90;32.70;;;;;;5112577;28;20507;-71
2023/05/26 09:09:17;;;;;;;39.93;12.03;;;14.80;33.30;;;;;;5113559;28;20441;-70
2023/05/26 09:11:43;;;;;;;43.42;12.77;;;14.90;33.20;;;;;;5128989;28;20398;-69
2023/05/26 09:14:16;;;;;;;36.25;11.38;;;15.10;32.30;;;;;;5132304;28;20421;-69
2023/05/26 09:16:42;;;;;;;49.58;12.10;;;15.20;31.10;;;;;;5113176;28;20396;-74
2023/05/26 09:19:15;;;;;;;42.10;10.50;;;15.20;30.80;;;;;;5111689;28;20884;-72
2023/05/26 09:21:49;;;;;;;39.35;10.70;;;15.10;31.60;;;;;;5100168;28;20402;-73
2023/05/26 09:24:16;;;;;;;41.63;11.18;;;15.20;31.80;;;;;;5101646;28;20392;-70
2023/05/26 09:26:44;;;;;;;35.38;11.25;;;15.30;31.20;;;;;;5095350;28;20370;-71
2023/05/26 09:29:10;;;;;;;36.83;12.02;;;15.60;30.80;;;;;;5108551;28;20381;-71
2023/05/26 09:31:42;;;;;;;38.23;10.70;;;15.80;31.00;;;;;;5112823;28;20744;-72
2023/05/26 09:34:09;;;;;;;38.17;10.15;;;16.00;29.30;;;;;;5112228;28;20451;-70
2023/05/26 09:36:36;;;;;;;35.85;9.35;;;15.90;27.90;;;;;;5112148;28;20384;-69
2023/05/26 09:39:05;;;;;;;39.22;10.70;;;15.60;29.40;;;;;;5094077;28;20375;-70
2023/05/26 09:41:38;;;;;;;45.08;11.07;;;15.70;32.20;;;;;;5091336;28;20901;-71
2023/05/26 09:44:14;;;;;;;44.37;10.30;;;16.00;30.40;;;;;;5091367;28;20382;-72
2023/05/26 09:46:41;;;;;;;45.57;10.63;;;16.30;27.80;;;;;;5091430;28;20400;-70
2023/05/26 09:49:12;;;;;;;34.60;9.80;;;16.40;27.70;;;;;;5091762;28;20742;-71
2023/05/26 09:51:39;;;;;;;43.40;10.50;;;16.60;27.50;;;;;;5092488;28;20928;-72
2023/05/26 09:54:05;;;;;;;39.92;10.18;;;16.80;26.40;;;;;;5090981;28;20778;-71
2023/05/26 09:56:36;;;;;;;39.20;10.20;;;16.90;25.60;;;;;;5091618;28;20942;-71
2023/05/26 09:59:06;;;;;;;37.08;9.52;;;16.90;24.70;;;;;;5091539;28;20495;-71
2023/05/26 10:01:35;;;;;;;40.83;9.32;;;16.90;26.00;;;;;;5097403;28;20442;-70
2023/05/26 10:04:05;;;;;;;35.92;9.55;;;17.10;24.10;;;;;;5111837;28;20384;-71
2023/05/26 10:06:32;;;;;;;29.23;9.00;;;16.80;24.60;;;;;;5111034;28;20384;-70
2023/05/26 10:09:00;;;;;;;42.60;10.50;;;16.50;24.80;;;;;;5102111;28;20439;-71
2023/05/26 10:11:29;;;;;;;47.10;10.02;;;16.40;25.40;;;;;;5104710;28;20384;-70
2023/05/26 10:13:55;;;;;;;33.85;10.40;;;16.50;25.20;;;;;;5109470;28;20760;-70
2023/05/26 10:16:22;;;;;;;48.00;10.93;;;16.70;27.60;;;;;;5109370;28;20405;-71
2023/05/26 10:18:49;;;;;;;38.50;9.48;;;17.10;25.30;;;;;;5108603;28;20384;-70
2023/05/26 10:21:18;;;;;;;38.53;10.30;;;17.30;24.80;;;;;;5111461;28;20411;-70
2023/05/26 10:23:50;;;;;;;42.13;12.05;;;17.40;22.80;;;;;;5112846;28;20435;-71
2023/05/26 10:26:24;;;;;;;40.03;10.17;;;17.50;24.10;;;;;;5111438;28;20400;-72
2023/05/26 10:28:56;;;;;;;40.55;12.80;;;17.50;22.30;;;;;;5113231;28;20790;-72
2023/05/26 10:31:29;;;;;;;38.92;10.60;;;17.50;23.80;;;;;;5113341;28;20396;-71
2023/05/26 10:33:56;;;;;;;42.42;11.60;;;17.60;22.80;;;;;;5113149;28;20394;-71
2023/05/26 10:36:21;;;;;;;43.77;12.10;;;17.60;22.20;;;;;;5113055;28;20460;-71
2023/05/26 10:38:48;;;;;;;45.33;14.03;;;17.70;22.60;;;;;;5112284;28;20496;-70
2023/05/26 10:41:33;;;;;;;40.90;12.55;;;17.90;23.10;;;;;;5113396;28;20427;-71
2023/05/26 10:44:00;;;;;;;40.47;11.00;;;18.10;22.50;;;;;;5113504;28;20413;-70
2023/05/26 10:46:46;;;;;;;36.47;11.38;;;18.10;20.40;;;;;;5114758;28;20475;-71
2023/05/26 10:49:20;;;;;;;41.80;11.27;;;18.00;20.10;;;;;;5115838;28;20396;-71
2023/05/26 10:51:55;;;;;;;31.00;10.90;;;18.00;20.60;;;;;;5116367;28;20412;-71
2023/05/26 10:54:24;;;;;;;32.83;10.10;;;18.10;20.80;;;;;;5117358;28;20760;-70
2023/05/26 10:56:51;;;;;;;42.97;12.40;;;18.20;20.40;;;;;;5100903;28;20432;-71
2023/05/26 10:59:36;;;;;;;39.00;12.20;;;18.30;20.30;;;;;;5112106;28;20376;-71
2023/05/26 11:02:07;;;;;;;37.78;9.32;;;18.30;20.30;;;;;;5096393;28;20401;-70
2023/05/26 11:04:43;;;;;;;44.38;10.82;;;18.00;19.80;;;;;;5099253;28;20381;-71
2023/05/26 11:07:29;;;;;;;40.90;12.60;;;17.90;21.60;;;;;;5115209;28;20373;-72
2023/05/26 11:10:08;;;;;;;41.28;12.85;;;18.20;20.80;;;;;;5103490;28;20472;-71
2023/05/26 11:12:35;;;;;;;41.80;11.65;;;18.30;20.60;;;;;;5094443;28;20905;-71
2023/05/26 11:15:23;;;;;;;38.70;11.98;;;18.40;20.30;;;;;;5095338;28;20413;-71
2023/05/26 11:18:08;;;;;;;40.13;9.77;;;18.60;20.40;;;;;;5091016;28;20401;-72
2023/05/26 11:20:35;;;;;;;35.30;9.73;;;18.60;18.90;;;;;;5094401;28;21030;-72
2023/05/26 11:23:01;;;;;;;33.85;10.40;;;18.60;19.40;;;;;;5093762;28;20394;-71
2023/05/26 11:25:27;;;;;;;30.65;8.50;;;18.50;20.00;;;;;;5094107;28;20396;-71
2023/05/26 11:27:52;;;;;;;38.38;10.65;;;18.20;19.00;;;;;;5094895;28;20448;-71
2023/05/26 11:30:19;;;;;;;43.30;10.10;;;18.10;20.00;;;;;;5094442;28;20374;-71
2023/05/26 11:32:45;;;;;;;39.40;9.85;;;18.20;19.90;;;;;;5093135;28;20736;-72
2023/05/26 11:35:26;;;;;;;36.58;9.25;;;18.30;19.90;;;;;;5092691;28;20377;-72
2023/05/26 11:37:52;;;;;;;38.45;10.07;;;18.20;19.70;;;;;;5100302;28;20385;-71
2023/05/26 11:40:18;;;;;;;31.60;9.50;;;18.00;20.90;;;;;;5107076;28;20386;-71
2023/05/26 11:42:52;;;;;;;48.10;13.87;;;18.20;20.50;;;;;;5104790;28;20448;-72
2023/05/26 11:45:18;;;;;;;41.50;11.27;;;18.60;20.00;;;;;;5103026;28;20378;-71
2023/05/26 11:47:44;;;;;;;39.33;12.70;;;18.90;19.80;;;;;;5094260;28;20431;-70
2023/05/26 11:50:11;;;;;;;32.92;10.52;;;19.20;18.20;;;;;;5094248;28;20394;-71
2023/05/26 11:52:43;;;;;;;40.38;11.35;;;19.40;17.80;;;;;;5093245;28;20382;-71
2023/05/26 11:55:18;;;;;;;37.42;9.50;;;19.50;17.60;;;;;;5093261;28;20381;-70
2023/05/26 11:57:45;;;;;;;34.60;9.60;;;19.60;17.40;;;;;;5093142;28;20393;-71
2023/05/26 12:00:14;;;;;;;39.28;10.10;;;19.70;17.40;;;;;;5093274;28;20787;-70
2023/05/26 12:02:40;;;;;;;34.45;9.80;;;19.80;17.20;;;;;;5093798;28;20397;-70
2023/05/26 12:05:29;;;;;;;37.15;10.93;;;19.70;17.10;;;;;;5093812;28;20426;-70
2023/05/26 12:08:08;;;;;;;28.80;9.40;;;19.80;17.20;;;;;;5092569;28;20890;-71
2023/05/26 12:10:35;;;;;;;34.33;9.13;;;20.00;17.10;;;;;;5093526;28;20374;-70
2023/05/26 12:13:02;;;;;;;33.60;10.10;;;20.00;16.20;;;;;;5093375;28;20809;-70
2023/05/26 12:15:28;;;;;;;25.42;9.07;;;20.00;16.70;;;;;;5094405;28;20382;-71
2023/05/26 12:17:56;;;;;;;39.83;10.52;;;20.20;16.30;;;;;;5094160;28;20539;-71
2023/05/26 12:20:23;;;;;;;34.58;9.15;;;20.20;16.20;;;;;;5093265;28;20756;-71
2023/05/26 12:23:01;;;;;;;31.33;9.30;;;20.20;16.30;;;;;;5093242;28;20408;-71
2023/05/26 12:25:28;;;;;;;36.28;10.48;;;20.10;15.60;;;;;;5092575;28;20401;-70
2023/05/26 12:27:54;;;;;;;40.28;10.55;;;20.20;15.60;;;;;;5092641;28;20381;-71
2023/05/26 12:30:27;;;;;;;35.63;10.20;;;20.40;16.00;;;;;;5092545;28;20382;-71
2023/05/26 12:32:53;;;;;;;39.70;13.82;;;20.50;15.90;;;;;;5092635;28;20378;-71
2023/05/26 12:35:19;;;;;;;30.88;9.70;;;20.70;15.80;;;;;;5092698;28;20454;-71